Mullinville, Kansas
Current Conditions -  °F | °C
As of 7:52 PM on Saturday 22 Nov 2014 (Local Time) from KDDC Reporting Station
Overcast Overcast  
Wind Chill: 55°   Ceiling: 1000
Heat Index: 55°   Visibility: 10mi
Dew Point: 49°   Wind: 28mph
Humidity: 80%   Direction: 180°S
Pressure: 29.6"   Gusts: 36mph
Location:  37.59°N, 99.48°W
Report Text: KDDC 230152Z AUTO 18024G31KT 10SM OVC010 13/09 A2960 RMK AO2 PK WND 18034/0129 SLP023 T01280094
Loading
Personal Weather Stations






























Interactive Weather Map New forecast layout! Learn more

10-Day Weather Forecast

Advertisements
Track Severe Weather on mobile